Time;durP1;ratioP1;P1;durP2;ratioP2;P2;SDS_P1;SDS_P2;PMS_P1;PMS_P2;Temp;Humidity;BMP_temperature;BMP_pressure;BME280_temperature;BME280_humidity;BME280_pressure;Samples;Min_cycle;Max_cycle;Signal;HPM_P1;HPM_P2
2023/10/04 00:00:54;;;;;;;;;0.33;0.33;;;;;;;;5076331;27;45397;-51
2023/10/04 00:03:19;;;;;;;;;5.00;1.00;;;;;;;;5076470;27;45785;-51
2023/10/04 00:05:45;;;;;;;;;3.00;0.33;;;;;;;;5074287;27;45300;-50
2023/10/04 00:08:10;;;;;;;;;0.00;0.00;;;;;;;;5075586;27;45544;-49
2023/10/04 00:10:35;;;;;;;;;0.00;0.00;;;;;;;;5072972;27;45508;-49
2023/10/04 00:13:00;;;;;;;;;0.00;0.00;;;;;;;;5077003;27;46323;-51
2023/10/04 00:15:28;;;;;;;;;0.00;0.00;;;;;;;;5078279;27;45537;-50
2023/10/04 00:17:53;;;;;;;;;1.00;1.00;;;;;;;;5075900;27;45579;-48
2023/10/04 00:20:19;;;;;;;;;0.33;0.33;;;;;;;;5078138;27;45274;-48
2023/10/04 00:22:46;;;;;;;;;2.00;0.00;;;;;;;;5075605;27;46202;-48
2023/10/04 00:25:12;;;;;;;;;0.00;0.00;;;;;;;;5074826;27;45427;-51
2023/10/04 00:27:40;;;;;;;;;1.00;1.00;;;;;;;;5070725;27;45310;-51
2023/10/04 00:30:06;;;;;;;;;1.00;0.00;;;;;;;;5070814;27;45390;-48
2023/10/04 00:32:31;;;;;;;;;0.00;0.00;;;;;;;;5072904;27;45447;-47
2023/10/04 00:34:56;;;;;;;;;0.00;0.00;;;;;;;;5075912;27;45481;-48
2023/10/04 00:37:24;;;;;;;;;1.00;1.00;;;;;;;;5065891;27;46156;-46
2023/10/04 00:39:49;;;;;;;;;0.00;0.00;;;;;;;;5074130;27;45605;-47
2023/10/04 00:42:17;;;;;;;;;3.00;0.00;;;;;;;;5076149;27;45643;-50
2023/10/04 00:44:42;;;;;;;;;0.00;0.00;;;;;;;;5071136;27;45425;-50
2023/10/04 00:47:09;;;;;;;;;1.00;1.00;;;;;;;;5070303;27;45697;-48
2023/10/04 00:49:34;;;;;;;;;1.00;0.00;;;;;;;;5077117;27;45548;-47
2023/10/04 00:52:00;;;;;;;;;2.00;0.33;;;;;;;;5076284;27;45401;-46
2023/10/04 00:54:26;;;;;;;;;1.00;1.00;;;;;;;;5074700;27;45445;-50
2023/10/04 00:56:51;;;;;;;;;0.67;0.67;;;;;;;;5074152;27;45326;-49
2023/10/04 00:59:17;;;;;;;;;1.67;1.00;;;;;;;;5077372;27;45831;-45
2023/10/04 01:01:42;;;;;;;;;0.33;0.00;;;;;;;;5074936;27;45707;-45
2023/10/04 01:04:07;;;;;;;;;1.33;0.33;;;;;;;;5074178;27;45610;-46
2023/10/04 01:06:35;;;;;;;;;2.00;0.00;;;;;;;;5077207;27;45467;-49
2023/10/04 01:09:01;;;;;;;;;0.33;0.33;;;;;;;;5077711;27;45634;-47
2023/10/04 01:11:26;;;;;;;;;0.00;0.00;;;;;;;;5070082;27;46230;-45
2023/10/04 01:14:01;;;;;;;;;0.00;0.00;;;;;;;;5071386;27;45390;-48
2023/10/04 01:16:26;;;;;;;;;4.00;0.00;;;;;;;;5076147;27;45455;-47
2023/10/04 01:18:51;;;;;;;;;0.67;0.33;;;;;;;;5075775;27;45577;-48
2023/10/04 01:21:17;;;;;;;;;2.00;0.33;;;;;;;;5074378;27;45642;-45
2023/10/04 01:23:45;;;;;;;;;0.00;0.00;;;;;;;;5075812;27;45496;-45
2023/10/04 01:26:25;;;;;;;;;1.00;1.00;;;;;;;;5075379;27;45563;-45
2023/10/04 01:28:50;;;;;;;;;1.00;0.00;;;;;;;;5075763;27;45351;-47
2023/10/04 01:31:15;;;;;;;;;0.00;0.00;;;;;;;;5076127;27;46292;-49
2023/10/04 01:33:40;;;;;;;;;1.00;0.00;;;;;;;;5072682;27;45545;-47
2023/10/04 01:36:06;;;;;;;;;1.00;1.00;;;;;;;;5075509;27;45453;-47
2023/10/04 01:38:32;;;;;;;;;2.00;0.00;;;;;;;;5074892;27;45536;-49
2023/10/04 01:40:58;;;;;;;;;0.67;0.00;;;;;;;;5071810;27;46311;-46
2023/10/04 01:43:24;;;;;;;;;2.33;1.00;;;;;;;;5076712;27;45449;-45
2023/10/04 01:45:50;;;;;;;;;1.00;0.00;;;;;;;;5074363;27;45583;-47
2023/10/04 01:48:15;;;;;;;;;0.00;0.00;;;;;;;;5076470;27;45390;-45
2023/10/04 01:50:44;;;;;;;;;2.33;1.00;;;;;;;;5073248;27;45506;-48
2023/10/04 01:53:09;;;;;;;;;0.00;0.00;;;;;;;;5072842;27;45446;-46
2023/10/04 01:55:35;;;;;;;;;0.00;0.00;;;;;;;;5074899;27;45421;-48
2023/10/04 01:58:00;;;;;;;;;2.33;0.00;;;;;;;;5074701;27;46588;-46
2023/10/04 02:00:28;;;;;;;;;0.00;0.00;;;;;;;;5071677;27;45449;-48
2023/10/04 02:02:53;;;;;;;;;2.00;1.00;;;;;;;;5073916;27;45363;-49
2023/10/04 02:05:28;;;;;;;;;0.00;0.00;;;;;;;;5074574;27;45558;-46
2023/10/04 02:07:53;;;;;;;;;0.00;0.00;;;;;;;;5073039;27;45820;-50
2023/10/04 02:10:19;;;;;;;;;0.00;0.00;;;;;;;;5080365;27;45415;-47
2023/10/04 02:12:44;;;;;;;;;0.00;0.00;;;;;;;;5088282;27;46651;-47
2023/10/04 02:15:14;;;;;;;;;0.00;0.00;;;;;;;;5075830;27;45475;-46
2023/10/04 02:17:40;;;;;;;;;3.00;1.00;;;;;;;;5084607;27;45405;-48
2023/10/04 02:20:09;;;;;;;;;0.00;0.00;;;;;;;;5081406;27;46709;-45
2023/10/04 02:22:34;;;;;;;;;0.33;0.00;;;;;;;;5080403;27;45698;-47
2023/10/04 02:25:00;;;;;;;;;1.67;0.00;;;;;;;;5078525;27;45476;-50
2023/10/04 02:27:27;;;;;;;;;0.00;0.00;;;;;;;;5085604;27;45468;-46
2023/10/04 02:29:53;;;;;;;;;1.67;0.33;;;;;;;;5079524;27;46081;-45
2023/10/04 02:32:19;;;;;;;;;0.33;0.33;;;;;;;;5072648;27;45385;-47
2023/10/04 02:34:44;;;;;;;;;0.00;0.00;;;;;;;;5077584;27;45475;-48
2023/10/04 02:37:10;;;;;;;;;0.00;0.00;;;;;;;;5075149;27;45252;-46
2023/10/04 02:39:38;;;;;;;;;0.00;0.00;;;;;;;;5078709;27;46029;-48
2023/10/04 02:42:09;;;;;;;;;0.67;0.00;;;;;;;;5078577;27;45453;-48
2023/10/04 02:44:35;;;;;;;;;2.67;0.33;;;;;;;;5079550;27;45313;-47
2023/10/04 02:47:04;;;;;;;;;1.33;1.33;;;;;;;;5078410;27;45508;-46
2023/10/04 02:49:31;;;;;;;;;0.67;0.67;;;;;;;;5078655;27;45399;-49
2023/10/04 02:51:56;;;;;;;;;0.00;0.00;;;;;;;;5077318;27;45430;-46
2023/10/04 02:54:23;;;;;;;;;1.33;0.00;;;;;;;;5074663;27;45393;-47
2023/10/04 02:56:50;;;;;;;;;1.00;0.00;;;;;;;;5077166;27;45809;-47
2023/10/04 02:59:16;;;;;;;;;1.00;0.00;;;;;;;;5078406;27;47124;-46
2023/10/04 03:01:41;;;;;;;;;3.00;0.33;;;;;;;;5079909;27;45763;-46
2023/10/04 03:04:09;;;;;;;;;2.00;0.00;;;;;;;;5075144;27;45350;-48
2023/10/04 03:06:35;;;;;;;;;4.33;1.00;;;;;;;;5078731;27;45405;-46
2023/10/04 03:09:00;;;;;;;;;0.33;0.33;;;;;;;;5075806;27;46158;-46
2023/10/04 03:11:27;;;;;;;;;4.00;1.00;;;;;;;;5082193;27;45454;-46
2023/10/04 03:13:52;;;;;;;;;2.00;0.00;;;;;;;;5084852;27;45361;-49
2023/10/04 03:16:17;;;;;;;;;1.00;1.00;;;;;;;;5077140;27;45410;-50
2023/10/04 03:18:44;;;;;;;;;2.33;0.33;;;;;;;;5075627;27;45969;-49
2023/10/04 03:21:20;;;;;;;;;0.33;0.33;;;;;;;;5074161;27;45421;-47
2023/10/04 03:23:45;;;;;;;;;1.00;1.00;;;;;;;;5078792;27;45524;-47
2023/10/04 03:26:12;;;;;;;;;1.00;1.00;;;;;;;;5076103;27;46894;-46
2023/10/04 03:28:37;;;;;;;;;1.00;0.00;;;;;;;;5075700;27;46050;-49
2023/10/04 03:31:09;;;;;;;;;0.00;0.00;;;;;;;;5076546;27;45464;-49
2023/10/04 03:33:40;;;;;;;;;0.67;0.67;;;;;;;;5075366;27;45440;-46
2023/10/04 03:36:06;;;;;;;;;1.00;1.00;;;;;;;;5074677;27;45503;-49
2023/10/04 03:38:35;;;;;;;;;0.00;0.00;;;;;;;;5070610;27;45412;-45
2023/10/04 03:41:03;;;;;;;;;2.00;2.00;;;;;;;;5071389;27;45425;-49
2023/10/04 03:43:28;;;;;;;;;2.00;1.00;;;;;;;;5075686;27;45386;-46
2023/10/04 03:45:54;;;;;;;;;2.00;1.00;;;;;;;;5075184;27;45421;-46
2023/10/04 03:48:21;;;;;;;;;2.33;1.00;;;;;;;;5078126;27;47076;-46
2023/10/04 03:50:50;;;;;;;;;0.67;0.67;;;;;;;;5075191;27;46505;-45
2023/10/04 03:53:16;;;;;;;;;2.00;1.00;;;;;;;;5071830;27;45341;-45
2023/10/04 03:55:42;;;;;;;;;0.67;0.33;;;;;;;;5077199;27;45462;-47
2023/10/04 03:58:09;;;;;;;;;0.00;0.00;;;;;;;;5077552;27;47162;-46
2023/10/04 04:00:36;;;;;;;;;0.00;0.00;;;;;;;;5074772;27;45440;-45
2023/10/04 04:03:01;;;;;;;;;0.33;0.33;;;;;;;;5075315;27;45412;-45
2023/10/04 04:05:27;;;;;;;;;0.00;0.00;;;;;;;;5077587;27;45436;-48
2023/10/04 04:07:53;;;;;;;;;2.00;0.33;;;;;;;;5077992;27;46247;-45
2023/10/04 04:10:19;;;;;;;;;0.67;0.67;;;;;;;;5075829;27;45481;-46
2023/10/04 04:12:46;;;;;;;;;0.67;0.67;;;;;;;;5078365;27;45518;-45
2023/10/04 04:15:12;;;;;;;;;2.00;1.00;;;;;;;;5074981;27;45834;-47
2023/10/04 04:17:39;;;;;;;;;1.00;1.00;;;;;;;;5076558;28;46435;-50
2023/10/04 04:20:26;;;;;;;;;1.67;1.00;;;;;;;;5072486;28;45356;-47
2023/10/04 04:22:53;;;;;;;;;1.00;0.67;;;;;;;;5072856;28;45392;-49
2023/10/04 04:25:19;;;;;;;;;2.00;0.33;;;;;;;;5073046;27;45476;-46
2023/10/04 04:27:45;;;;;;;;;2.00;0.67;;;;;;;;5076031;27;46246;-46
2023/10/04 04:30:16;;;;;;;;;0.00;0.00;;;;;;;;5076025;27;45695;-48
2023/10/04 04:32:49;;;;;;;;;2.00;1.00;;;;;;;;5070776;28;45412;-47
2023/10/04 04:35:22;;;;;;;;;1.00;1.00;;;;;;;;5077615;27;45548;-46
2023/10/04 04:37:48;;;;;;;;;3.33;0.00;;;;;;;;5076423;27;45466;-46
2023/10/04 04:40:17;;;;;;;;;4.67;2.00;;;;;;;;5077221;28;45533;-46
2023/10/04 04:42:47;;;;;;;;;2.00;1.00;;;;;;;;5077435;28;45318;-46
2023/10/04 04:45:25;;;;;;;;;1.00;1.00;;;;;;;;5077022;28;46734;-45
2023/10/04 04:47:50;;;;;;;;;3.00;1.33;;;;;;;;5075151;28;47212;-47
2023/10/04 04:50:16;;;;;;;;;1.67;1.00;;;;;;;;5071436;28;45390;-45
2023/10/04 04:52:42;;;;;;;;;0.67;0.67;;;;;;;;5077617;28;45439;-46
2023/10/04 04:55:10;;;;;;;;;3.00;1.67;;;;;;;;5070517;28;45548;-46
2023/10/04 04:57:35;;;;;;;;;1.33;1.33;;;;;;;;5076625;28;46856;-46
2023/10/04 05:00:09;;;;;;;;;3.00;0.67;;;;;;;;5072336;27;45421;-46
2023/10/04 05:02:36;;;;;;;;;2.33;1.00;;;;;;;;5068768;28;46728;-55
2023/10/04 05:05:02;;;;;;;;;1.67;1.67;;;;;;;;5076110;27;45365;-48
2023/10/04 05:07:27;;;;;;;;;1.00;1.00;;;;;;;;5072311;27;45567;-49
2023/10/04 05:09:55;;;;;;;;;1.00;0.00;;;;;;;;5074204;28;45344;-46
2023/10/04 05:12:20;;;;;;;;;0.67;0.67;;;;;;;;5076117;27;45262;-45
2023/10/04 05:14:45;;;;;;;;;1.67;1.33;;;;;;;;5077278;27;45481;-47
2023/10/04 05:17:11;;;;;;;;;2.33;1.00;;;;;;;;5071167;28;46253;-46
2023/10/04 05:19:36;;;;;;;;;4.00;2.00;;;;;;;;5076658;28;45589;-46
2023/10/04 05:22:02;;;;;;;;;1.33;0.33;;;;;;;;5073451;28;45524;-46
2023/10/04 05:24:27;;;;;;;;;1.67;1.67;;;;;;;;5075930;27;45510;-45
2023/10/04 05:26:52;;;;;;;;;3.00;2.00;;;;;;;;5074405;27;45521;-46
2023/10/04 05:29:17;;;;;;;;;3.00;1.00;;;;;;;;5077762;28;45369;-45
2023/10/04 05:31:43;;;;;;;;;2.67;2.00;;;;;;;;5076068;27;45522;-47
2023/10/04 05:34:08;;;;;;;;;1.00;1.00;;;;;;;;5075014;28;45287;-48
2023/10/04 05:36:34;;;;;;;;;3.00;2.00;;;;;;;;5075243;28;46144;-45
2023/10/04 05:39:02;;;;;;;;;1.00;1.00;;;;;;;;5072591;28;45309;-46
2023/10/04 05:41:31;;;;;;;;;2.33;1.00;;;;;;;;5074747;27;45496;-46
2023/10/04 05:43:56;;;;;;;;;2.00;1.00;;;;;;;;5076011;27;45409;-46
2023/10/04 05:46:21;;;;;;;;;2.00;2.00;;;;;;;;5076817;27;47099;-45
2023/10/04 05:48:48;;;;;;;;;1.33;1.00;;;;;;;;5071289;27;45438;-48
2023/10/04 05:51:16;;;;;;;;;2.00;1.00;;;;;;;;5079703;28;45380;-46
2023/10/04 05:53:41;;;;;;;;;1.00;1.00;;;;;;;;5079999;27;45639;-45
2023/10/04 05:56:06;;;;;;;;;2.33;1.33;;;;;;;;5078297;27;46117;-46
2023/10/04 05:58:32;;;;;;;;;1.33;1.33;;;;;;;;5072555;27;45429;-48
2023/10/04 06:00:57;;;;;;;;;1.67;1.67;;;;;;;;5079223;27;45570;-46
2023/10/04 06:03:22;;;;;;;;;2.33;1.00;;;;;;;;5080760;27;45398;-46
2023/10/04 06:05:48;;;;;;;;;1.33;1.33;;;;;;;;5081694;27;46957;-46
2023/10/04 06:08:18;;;;;;;;;2.67;1.00;;;;;;;;5074458;27;45379;-46
2023/10/04 06:10:43;;;;;;;;;2.00;1.00;;;;;;;;5075240;27;45449;-47
2023/10/04 06:13:12;;;;;;;;;3.00;1.33;;;;;;;;5082957;27;45606;-45
2023/10/04 06:15:41;;;;;;;;;2.67;2.00;;;;;;;;5081179;27;46472;-45
2023/10/04 06:18:07;;;;;;;;;3.00;2.00;;;;;;;;5075408;27;45359;-45
2023/10/04 06:20:33;;;;;;;;;2.67;2.67;;;;;;;;5078402;27;45583;-46
2023/10/04 06:23:00;;;;;;;;;2.67;2.67;;;;;;;;5083153;27;45268;-45
2023/10/04 06:25:26;;;;;;;;;2.00;2.00;;;;;;;;5073941;27;46135;-45
2023/10/04 06:27:52;;;;;;;;;3.33;2.67;;;;;;;;5073814;27;45644;-47
2023/10/04 06:30:21;;;;;;;;;1.00;1.00;;;;;;;;5077222;27;45300;-45
2023/10/04 06:32:46;;;;;;;;;2.67;2.00;;;;;;;;5080242;27;45476;-50
2023/10/04 06:35:12;;;;;;;;;2.00;1.00;;;;;;;;5080046;27;46163;-48
2023/10/04 06:37:37;;;;;;;;;3.67;2.00;;;;;;;;5081076;27;45390;-46
2023/10/04 06:40:04;;;;;;;;;1.33;1.33;;;;;;;;5079563;27;45639;-46
2023/10/04 06:42:29;;;;;;;;;2.00;2.00;;;;;;;;5078493;28;45850;-47
2023/10/04 06:44:55;;;;;;;;;3.67;1.33;;;;;;;;5080366;27;46280;-73
2023/10/04 06:47:23;;;;;;;;;3.67;3.00;;;;;;;;5084465;27;45546;-67
2023/10/04 06:49:48;;;;;;;;;4.00;2.00;;;;;;;;5076192;27;45447;-68
2023/10/04 06:52:13;;;;;;;;;3.00;1.00;;;;;;;;5078216;27;45383;-69
2023/10/04 06:54:38;;;;;;;;;2.00;2.00;;;;;;;;5081865;27;46437;-69
2023/10/04 06:57:04;;;;;;;;;2.00;2.00;;;;;;;;5079121;27;45619;-69
2023/10/04 06:59:29;;;;;;;;;4.67;3.33;;;;;;;;5081872;27;45941;-69
2023/10/04 07:01:54;;;;;;;;;2.00;2.00;;;;;;;;5076727;27;45272;-64
2023/10/04 07:04:19;;;;;;;;;3.33;1.00;;;;;;;;5075945;27;46276;-64
2023/10/04 07:06:44;;;;;;;;;1.00;1.00;;;;;;;;5070119;27;45645;-64
2023/10/04 07:09:10;;;;;;;;;2.67;1.00;;;;;;;;5075305;27;45448;-69
2023/10/04 07:11:36;;;;;;;;;2.33;2.00;;;;;;;;5076636;27;45485;-68
2023/10/04 07:14:01;;;;;;;;;1.00;1.00;;;;;;;;5076979;27;46062;-68
2023/10/04 07:16:26;;;;;;;;;4.33;1.00;;;;;;;;5074624;27;46715;-69
2023/10/04 07:18:51;;;;;;;;;2.00;2.00;;;;;;;;5078717;27;45480;-69
2023/10/04 07:21:16;;;;;;;;;3.00;1.00;;;;;;;;5078962;27;45590;-69
2023/10/04 07:23:42;;;;;;;;;1.00;1.00;;;;;;;;5079988;27;45376;-68
2023/10/04 07:26:09;;;;;;;;;2.67;1.67;;;;;;;;5075462;27;45427;-69
2023/10/04 07:28:37;;;;;;;;;2.00;1.00;;;;;;;;5073748;27;45153;-69
2023/10/04 07:31:03;;;;;;;;;1.00;1.00;;;;;;;;5074028;27;45374;-69
2023/10/04 07:33:28;;;;;;;;;3.00;1.67;;;;;;;;5066629;27;45588;-70
2023/10/04 07:35:53;;;;;;;;;1.67;1.67;;;;;;;;5072435;27;46047;-69
2023/10/04 07:38:19;;;;;;;;;1.67;1.67;;;;;;;;5078585;27;45325;-69
2023/10/04 07:40:44;;;;;;;;;6.00;3.00;;;;;;;;5070030;27;45473;-69
2023/10/04 07:43:09;;;;;;;;;2.33;0.33;;;;;;;;5073231;27;45718;-69
2023/10/04 07:45:35;;;;;;;;;1.00;1.00;;;;;;;;5075290;27;45559;-69
2023/10/04 07:48:01;;;;;;;;;2.00;1.67;;;;;;;;5076799;27;46949;-69
2023/10/04 07:50:26;;;;;;;;;2.00;1.00;;;;;;;;5077814;27;46624;-70
2023/10/04 07:52:52;;;;;;;;;2.67;2.00;;;;;;;;5077490;27;46259;-69
2023/10/04 07:55:18;;;;;;;;;3.00;2.00;;;;;;;;5070293;27;45541;-69
2023/10/04 07:57:47;;;;;;;;;3.33;2.00;;;;;;;;5076114;27;45468;-70
2023/10/04 08:00:15;;;;;;;;;3.33;2.00;;;;;;;;5073822;27;45530;-69
2023/10/04 08:02:46;;;;;;;;;2.00;2.00;;;;;;;;5074488;27;45781;-69
2023/10/04 08:05:18;;;;;;;;;5.00;2.33;;;;;;;;5074111;27;45387;-70
2023/10/04 08:07:44;;;;;;;;;2.33;1.33;;;;;;;;5075210;27;45517;-70
2023/10/04 08:10:09;;;;;;;;;2.33;1.33;;;;;;;;5077428;27;45479;-69
2023/10/04 08:12:34;;;;;;;;;1.67;1.67;;;;;;;;5081463;27;46098;-70
2023/10/04 08:15:01;;;;;;;;;2.67;1.67;;;;;;;;5079260;27;45425;-68
2023/10/04 08:17:26;;;;;;;;;2.33;2.33;;;;;;;;5075054;27;45557;-70
2023/10/04 08:19:51;;;;;;;;;3.33;2.33;;;;;;;;5079520;27;45440;-70
2023/10/04 08:22:16;;;;;;;;;3.00;2.00;;;;;;;;5076423;27;45884;-70
2023/10/04 08:24:44;;;;;;;;;2.00;2.00;;;;;;;;5068763;27;45342;-70
2023/10/04 08:27:09;;;;;;;;;1.00;1.00;;;;;;;;5065768;27;45712;-70
2023/10/04 08:29:36;;;;;;;;;1.00;0.00;;;;;;;;5077423;27;45524;-69
2023/10/04 08:32:01;;;;;;;;;2.67;2.00;;;;;;;;5064360;27;47535;-69
2023/10/04 08:34:27;;;;;;;;;7.33;1.00;;;;;;;;5072482;27;45555;-70
2023/10/04 08:36:52;;;;;;;;;1.67;1.67;;;;;;;;5071368;27;45850;-69
2023/10/04 08:39:17;;;;;;;;;0.33;0.33;;;;;;;;5076345;27;45454;-70
2023/10/04 08:41:43;;;;;;;;;3.67;2.00;;;;;;;;5076367;27;46038;-70
2023/10/04 08:44:08;;;;;;;;;2.67;1.67;;;;;;;;5077995;27;45433;-69
2023/10/04 08:46:34;;;;;;;;;2.00;1.00;;;;;;;;5073774;27;45608;-69
2023/10/04 08:49:00;;;;;;;;;1.00;1.00;;;;;;;;5074996;27;47808;-70
2023/10/04 08:51:33;;;;;;;;;4.67;2.33;;;;;;;;5071366;27;47235;-70
2023/10/04 08:54:13;;;;;;;;;2.00;2.00;;;;;;;;5072916;27;45610;-70
2023/10/04 08:56:44;;;;;;;;;3.00;3.00;;;;;;;;5078675;27;45286;-70
2023/10/04 08:59:11;;;;;;;;;3.67;3.67;;;;;;;;5075169;27;45452;-70
2023/10/04 09:01:36;;;;;;;;;4.00;2.67;;;;;;;;5072661;27;46089;-69
2023/10/04 09:04:02;;;;;;;;;3.67;3.00;;;;;;;;5074781;27;45632;-70
2023/10/04 09:06:28;;;;;;;;;4.00;2.00;;;;;;;;5075046;28;45587;-70
2023/10/04 09:08:53;;;;;;;;;2.67;2.00;;;;;;;;5076089;27;45318;-70
2023/10/04 09:11:19;;;;;;;;;1.00;1.00;;;;;;;;5080626;27;47412;-70
2023/10/04 09:13:47;;;;;;;;;1.67;1.33;;;;;;;;5076864;28;45519;-69
2023/10/04 09:16:19;;;;;;;;;4.33;2.33;;;;;;;;5075760;27;45480;-69
2023/10/04 09:18:44;;;;;;;;;5.33;2.00;;;;;;;;5078079;27;45494;-69
2023/10/04 09:21:15;;;;;;;;;2.00;2.00;;;;;;;;5074384;27;46324;-70
2023/10/04 09:23:43;;;;;;;;;1.33;1.33;;;;;;;;5075260;28;45488;-69
2023/10/04 09:26:19;;;;;;;;;5.00;2.00;;;;;;;;5070032;27;45496;-70
2023/10/04 09:28:46;;;;;;;;;7.00;2.00;;;;;;;;5074641;28;45274;-69
2023/10/04 09:31:12;;;;;;;;;2.67;2.00;;;;;;;;5070072;27;45611;-69
2023/10/04 09:33:38;;;;;;;;;2.33;2.00;;;;;;;;5072429;27;45330;-68
2023/10/04 09:36:03;;;;;;;;;4.33;3.33;;;;;;;;5073680;28;45480;-69
2023/10/04 09:38:31;;;;;;;;;1.67;1.67;;;;;;;;5065975;27;45593;-70
2023/10/04 09:40:58;;;;;;;;;2.33;2.33;;;;;;;;5073146;28;45424;-68
2023/10/04 09:43:37;;;;;;;;;2.67;2.00;;;;;;;;5074784;28;46614;-69
2023/10/04 09:46:10;;;;;;;;;2.00;2.00;;;;;;;;5076717;28;45393;-70
2023/10/04 09:48:40;;;;;;;;;3.00;2.00;;;;;;;;5077775;27;45291;-69
2023/10/04 09:51:06;;;;;;;;;3.67;2.67;;;;;;;;5078115;28;47002;-69
2023/10/04 09:53:32;;;;;;;;;0.33;0.33;;;;;;;;5074665;28;45720;-70
2023/10/04 09:56:01;;;;;;;;;2.00;1.33;;;;;;;;5076476;27;45163;-70
2023/10/04 09:58:29;;;;;;;;;2.00;2.00;;;;;;;;5076688;28;45484;-71
2023/10/04 10:00:55;;;;;;;;;5.00;3.00;;;;;;;;5076016;28;46136;-71
2023/10/04 10:03:24;;;;;;;;;4.67;2.00;;;;;;;;5077795;28;45346;-70
2023/10/04 10:05:50;;;;;;;;;3.00;2.00;;;;;;;;5078660;28;45329;-70
2023/10/04 10:08:17;;;;;;;;;1.00;1.00;;;;;;;;5075747;28;45322;-70
2023/10/04 10:10:43;;;;;;;;;2.33;1.00;;;;;;;;5076227;27;47169;-69
2023/10/04 10:13:08;;;;;;;;;3.33;2.00;;;;;;;;5073628;28;45316;-70
2023/10/04 10:15:34;;;;;;;;;3.00;2.00;;;;;;;;5073209;27;45333;-71
2023/10/04 10:17:59;;;;;;;;;1.67;1.00;;;;;;;;5069031;28;45381;-70
2023/10/04 10:20:25;;;;;;;;;1.00;1.00;;;;;;;;5070786;28;46347;-70
2023/10/04 10:22:59;;;;;;;;;1.00;1.00;;;;;;;;5073904;28;45221;-72
2023/10/04 10:25:29;;;;;;;;;2.67;2.67;;;;;;;;5069862;27;45948;-73
2023/10/04 10:27:57;;;;;;;;;4.00;1.00;;;;;;;;5067526;27;45319;-73
2023/10/04 10:30:23;;;;;;;;;2.00;2.00;;;;;;;;5075136;27;46415;-73
2023/10/04 10:32:54;;;;;;;;;3.00;1.00;;;;;;;;5079655;27;45461;-71
2023/10/04 10:36:06;;;;;;;;;3.25;1.50;;;;;;;;5080964;27;45651;-72
2023/10/04 10:38:40;;;;;;;;;1.00;1.00;;;;;;;;5078126;27;45256;-71
2023/10/04 10:41:06;;;;;;;;;10.00;10.00;;;;;;;;5074615;27;46496;-65
2023/10/04 10:43:31;;;;;;;;;2.00;2.00;;;;;;;;5073183;28;45332;-65
2023/10/04 10:45:56;;;;;;;;;4.00;2.00;;;;;;;;5080809;28;45389;-64
2023/10/04 10:48:33;;;;;;;;;1.67;1.67;;;;;;;;5078751;28;45448;-65
2023/10/04 10:50:59;;;;;;;;;1.67;1.00;;;;;;;;5079488;27;47263;-70
2023/10/04 10:53:25;;;;;;;;;1.00;1.00;;;;;;;;5079263;27;45435;-69
2023/10/04 10:55:51;;;;;;;;;3.00;1.67;;;;;;;;5077723;28;45436;-70
2023/10/04 10:58:16;;;;;;;;;1.00;0.00;;;;;;;;5076756;28;45476;-71
2023/10/04 11:00:41;;;;;;;;;3.67;2.00;;;;;;;;5080301;27;45384;-70
2023/10/04 11:03:10;;;;;;;;;2.67;2.00;;;;;;;;5074260;28;45531;-70
2023/10/04 11:05:36;;;;;;;;;1.00;1.00;;;;;;;;5075163;27;45558;-66
2023/10/04 11:08:06;;;;;;;;;1.33;1.33;;;;;;;;5072554;27;45271;-68
2023/10/04 11:10:34;;;;;;;;;3.33;3.00;;;;;;;;5077651;27;46546;-64
2023/10/04 11:13:03;;;;;;;;;1.00;1.00;;;;;;;;5079478;28;45373;-64
2023/10/04 11:15:28;;;;;;;;;3.50;0.50;;;;;;;;5079866;27;45461;-66
2023/10/04 11:17:54;;;;;;;;;2.00;0.00;;;;;;;;5075557;28;45458;-67
2023/10/04 11:20:21;;;;;;;;;4.67;1.00;;;;;;;;5076305;27;46156;-67
2023/10/04 11:22:48;;;;;;;;;2.67;2.00;;;;;;;;5074392;27;45551;-70
2023/10/04 11:25:13;;;;;;;;;1.00;1.00;;;;;;;;5077815;28;45449;-63
2023/10/04 11:27:41;;;;;;;;;2.00;2.00;;;;;;;;5080081;27;45473;-68
2023/10/04 11:30:10;;;;;;;;;1.00;1.00;;;;;;;;5079843;27;45575;-68
2023/10/04 11:32:37;;;;;;;;;3.50;1.75;;;;;;;;5076918;28;45543;-64
2023/10/04 11:35:08;;;;;;;;;2.75;2.00;;;;;;;;5078765;28;45399;-64
2023/10/04 11:37:33;;;;;;;;;0.25;0.25;;;;;;;;5075246;28;45545;-63
2023/10/04 11:39:59;;;;;;;;;1.00;1.00;;;;;;;;5073729;27;46356;-64
2023/10/04 11:42:25;;;;;;;;;2.33;1.00;;;;;;;;5075276;27;45368;-64
2023/10/04 11:44:50;;;;;;;;;1.50;1.50;;;;;;;;5071703;27;45518;-63
2023/10/04 11:47:25;;;;;;;;;2.50;0.75;;;;;;;;5075213;27;45528;-63
2023/10/04 11:50:00;;;;;;;;;4.00;2.00;;;;;;;;5078246;28;45461;-63
2023/10/04 11:52:30;;;;;;;;;0.50;0.00;;;;;;;;5075655;27;45535;-67
2023/10/04 11:54:55;;;;;;;;;1.00;1.00;;;;;;;;5078598;27;45479;-67
2023/10/04 11:57:23;;;;;;;;;1.00;1.00;;;;;;;;5071856;27;45292;-68
2023/10/04 11:59:49;;;;;;;;;1.00;1.00;;;;;;;;5076321;27;45332;-67
2023/10/04 12:02:14;;;;;;;;;2.25;0.50;;;;;;;;5067408;27;45156;-67
2023/10/04 12:04:39;;;;;;;;;1.00;1.00;;;;;;;;5074578;28;46290;-67
2023/10/04 12:07:06;;;;;;;;;6.50;1.00;;;;;;;;5079785;27;45416;-68
2023/10/04 12:09:34;;;;;;;;;0.75;0.75;;;;;;;;5077703;28;46918;-63
2023/10/04 12:12:02;;;;;;;;;1.33;1.33;;;;;;;;5075750;28;45547;-64
2023/10/04 12:14:27;;;;;;;;;1.00;1.00;;;;;;;;5075808;27;48637;-68
2023/10/04 12:16:52;;;;;;;;;3.25;1.00;;;;;;;;5075138;28;45676;-68
2023/10/04 12:19:18;;;;;;;;;3.00;2.25;;;;;;;;5077327;28;45409;-62
2023/10/04 12:21:44;;;;;;;;;2.00;2.00;;;;;;;;5069225;27;46314;-62
2023/10/04 12:24:10;;;;;;;;;0.00;0.00;;;;;;;;5074896;27;45856;-61
2023/10/04 12:26:36;;;;;;;;;0.50;0.50;;;;;;;;5073748;27;45667;-61
2023/10/04 12:29:01;;;;;;;;;1.75;0.25;;;;;;;;5074376;27;46131;-61
2023/10/04 12:31:26;;;;;;;;;1.00;1.00;;;;;;;;5081187;27;45571;-61
2023/10/04 12:33:55;;;;;;;;;0.75;0.75;;;;;;;;5074083;27;45646;-61
2023/10/04 12:36:20;;;;;;;;;1.00;1.00;;;;;;;;5074218;28;45916;-61
2023/10/04 12:38:47;;;;;;;;;1.00;1.00;;;;;;;;5068697;27;47106;-61
2023/10/04 12:41:13;;;;;;;;;0.00;0.00;;;;;;;;5076613;27;45359;-61
2023/10/04 12:43:38;;;;;;;;;3.00;0.50;;;;;;;;5081360;27;46418;-61
2023/10/04 12:46:03;;;;;;;;;3.00;1.50;;;;;;;;5073677;27;45590;-61
2023/10/04 12:48:28;;;;;;;;;1.00;1.00;;;;;;;;5074465;27;46936;-62
2023/10/04 12:50:55;;;;;;;;;1.00;1.00;;;;;;;;5066934;27;45286;-61
2023/10/04 12:53:20;;;;;;;;;2.25;1.75;;;;;;;;5073675;27;45515;-61
2023/10/04 12:55:47;;;;;;;;;3.25;1.00;;;;;;;;5076391;28;45337;-61
2023/10/04 12:58:13;;;;;;;;;1.00;0.00;;;;;;;;5073371;27;47063;-61
2023/10/04 13:00:41;;;;;;;;;1.50;1.50;;;;;;;;5074072;27;45393;-61
2023/10/04 13:03:06;;;;;;;;;1.00;1.00;;;;;;;;5074721;27;45384;-61
2023/10/04 13:05:31;;;;;;;;;1.00;1.00;;;;;;;;5072062;27;45271;-61
2023/10/04 13:07:57;;;;;;;;;1.00;1.00;;;;;;;;5071653;27;45424;-61
2023/10/04 13:10:23;;;;;;;;;2.50;1.00;;;;;;;;5071286;27;45575;-62
2023/10/04 13:12:48;;;;;;;;;1.00;1.00;;;;;;;;5077400;27;45418;-61
2023/10/04 13:15:14;;;;;;;;;3.00;1.00;;;;;;;;5071853;27;45639;-62
2023/10/04 13:17:39;;;;;;;;;1.50;0.50;;;;;;;;5074029;27;46568;-61
2023/10/04 13:20:09;;;;;;;;;1.50;0.00;;;;;;;;5067720;27;45658;-61
2023/10/04 13:22:34;;;;;;;;;0.00;0.00;;;;;;;;5073743;27;45470;-61
2023/10/04 13:25:03;;;;;;;;;2.50;1.00;;;;;;;;5069979;27;45354;-60
2023/10/04 13:27:30;;;;;;;;;1.00;1.00;;;;;;;;5071908;27;45610;-65
2023/10/04 13:29:55;;;;;;;;;3.25;1.00;;;;;;;;5075012;27;45448;-62
2023/10/04 13:32:21;;;;;;;;;1.00;1.00;;;;;;;;5073965;27;45493;-62
2023/10/04 13:34:46;;;;;;;;;1.00;1.00;;;;;;;;5070142;27;45476;-61
2023/10/04 13:37:11;;;;;;;;;1.00;1.00;;;;;;;;5071576;27;46620;-63
2023/10/04 13:39:37;;;;;;;;;1.25;1.00;;;;;;;;5072998;27;45473;-62
2023/10/04 13:42:03;;;;;;;;;0.50;0.50;;;;;;;;5071061;27;45335;-71
2023/10/04 13:44:30;;;;;;;;;0.50;0.50;;;;;;;;5072794;27;45609;-70
2023/10/04 13:46:55;;;;;;;;;1.00;1.00;;;;;;;;5072725;27;45572;-68
2023/10/04 13:49:21;;;;;;;;;0.00;0.00;;;;;;;;5076115;27;45436;-70
2023/10/04 13:51:46;;;;;;;;;2.00;0.00;;;;;;;;5068168;27;45470;-61
2023/10/04 13:54:12;;;;;;;;;0.75;0.75;;;;;;;;5075082;27;45524;-61
2023/10/04 13:56:37;;;;;;;;;1.00;1.00;;;;;;;;5070897;27;46814;-61
2023/10/04 13:59:03;;;;;;;;;2.00;0.75;;;;;;;;5065131;27;45531;-61
2023/10/04 14:01:29;;;;;;;;;1.00;1.00;;;;;;;;5072758;27;45519;-61
2023/10/04 14:03:55;;;;;;;;;1.00;1.00;;;;;;;;5077017;27;45521;-60
2023/10/04 14:06:21;;;;;;;;;0.25;0.25;;;;;;;;5074289;27;45656;-70
2023/10/04 14:08:46;;;;;;;;;1.50;1.50;;;;;;;;5081691;27;45514;-70
2023/10/04 14:11:12;;;;;;;;;1.00;1.00;;;;;;;;5071985;27;45488;-70
2023/10/04 14:13:38;;;;;;;;;1.75;0.75;;;;;;;;5073774;27;45707;-70
2023/10/04 14:16:03;;;;;;;;;2.00;2.00;;;;;;;;5078515;27;45291;-71
2023/10/04 14:18:29;;;;;;;;;0.75;0.75;;;;;;;;5078428;27;45430;-68
2023/10/04 14:20:56;;;;;;;;;1.25;1.25;;;;;;;;5085544;27;45749;-68
2023/10/04 14:23:22;;;;;;;;;0.25;0.25;;;;;;;;5076149;27;45537;-68
2023/10/04 14:25:49;;;;;;;;;2.00;2.00;;;;;;;;5079724;27;45489;-68
2023/10/04 14:28:14;;;;;;;;;1.50;1.00;;;;;;;;5077402;27;45406;-68
2023/10/04 14:30:39;;;;;;;;;3.50;1.00;;;;;;;;5075397;27;45303;-68
2023/10/04 14:33:05;;;;;;;;;1.25;1.25;;;;;;;;5079264;27;45432;-67
2023/10/04 14:35:30;;;;;;;;;1.00;1.00;;;;;;;;5075871;27;46714;-68
2023/10/04 14:37:55;;;;;;;;;1.50;1.50;;;;;;;;5080130;27;45339;-68
2023/10/04 14:40:26;;;;;;;;;0.00;0.00;;;;;;;;5077376;27;45600;-68